createdAt,value
2022-11-24T00:03:30.058Z,99696.67
2022-11-24T00:08:34.329Z,99704.62
2022-11-24T00:13:41.591Z,99711.67
2022-11-24T00:18:47.522Z,99711.70
2022-11-24T00:23:51.822Z,99717.98
2022-11-24T00:28:57.642Z,99720.50
2022-11-24T00:34:03.825Z,99723.30
2022-11-24T00:39:14.850Z,99721.20
2022-11-24T00:44:18.133Z,99716.08
2022-11-24T00:49:21.549Z,99715.09
2022-11-24T00:54:24.962Z,99717.66
2022-11-24T00:59:28.379Z,99714.60
2022-11-24T01:04:31.946Z,99712.63
2022-11-24T01:09:35.517Z,99698.05
2022-11-24T01:14:39.652Z,99692.58
2022-11-24T01:19:42.864Z,99697.41
2022-11-24T01:24:46.278Z,99702.09
2022-11-24T01:29:49.489Z,99688.30
2022-11-24T01:34:52.802Z,99681.89
2022-11-24T01:39:56.219Z,99683.63
2022-11-24T01:45:30.664Z,99682.10
2022-11-24T01:50:36.013Z,99698.09
2022-11-24T01:55:40.159Z,99699.04
2022-11-24T02:00:45.415Z,99700.31
2022-11-24T02:05:58.148Z,99707.77
2022-11-24T02:11:04.636Z,99707.42
2022-11-24T02:16:10.886Z,99716.67
2022-11-24T02:21:16.359Z,99718.82
2022-11-24T02:26:46.834Z,99700.48
2022-11-24T02:31:58.541Z,99693.46
2022-11-24T02:37:01.756Z,99709.73
2022-11-24T02:42:12.750Z,99708.18
2022-11-24T02:47:15.962Z,99709.47
2022-11-24T02:52:19.684Z,99704.30
2022-11-24T02:57:23.682Z,99689.70
2022-11-24T03:02:27.004Z,99690.06
2022-11-24T03:07:30.376Z,99722.17
2022-11-24T03:12:33.759Z,99711.43
2022-11-24T03:17:37.277Z,99706.17
2022-11-24T03:22:41.841Z,99710.74
2022-11-24T03:27:45.437Z,99708.73
2022-11-24T03:32:48.755Z,99693.74
2022-11-24T03:37:52.043Z,99695.54
2022-11-24T03:42:55.481Z,99702.12
2022-11-24T03:47:58.698Z,99716.21
2022-11-24T03:53:02.008Z,99704.38
2022-11-24T03:58:05.322Z,99700.52
2022-11-24T04:03:09.358Z,99712.35
2022-11-24T04:08:13.457Z,99722.46
2022-11-24T04:13:19.465Z,99725.73
2022-11-24T04:18:23.184Z,99729.13
2022-11-24T04:23:26.501Z,99730.11
2022-11-24T04:28:29.816Z,99719.22
2022-11-24T04:33:33.438Z,99728.43
2022-11-24T04:39:25.933Z,99731.34
2022-11-24T04:44:00.027Z,99726.75
2022-11-24T04:49:03.446Z,99730.23
2022-11-24T04:54:12.527Z,99732.55
2022-11-24T04:59:15.909Z,99736.09
2022-11-24T05:04:21.669Z,99732.59
2022-11-24T05:09:36.916Z,99743.72
2022-11-24T05:14:48.368Z,99743.70
2022-11-24T05:19:51.577Z,99745.92
2022-11-24T05:24:54.796Z,99748.30
2022-11-24T05:29:58.101Z,99756.68
2022-11-24T05:35:02.544Z,99757.08
2022-11-24T05:40:07.265Z,99765.00
2022-11-24T05:45:14.031Z,99762.33
2022-11-24T05:50:20.706Z,99759.23
2022-11-24T05:55:23.784Z,99761.13
2022-11-24T06:00:27.610Z,99762.57
2022-11-24T06:05:30.913Z,99761.29
2022-11-24T06:10:34.023Z,99761.77
2022-11-24T06:15:37.973Z,99778.20
2022-11-24T06:20:42.143Z,99778.14
2022-11-24T06:25:51.304Z,99794.30
2022-11-24T06:30:54.752Z,99800.69
2022-11-24T06:36:05.850Z,99807.35
2022-11-24T06:41:13.286Z,99811.01
2022-11-24T06:46:16.330Z,99821.69
2022-11-24T06:51:20.181Z,99815.71
2022-11-24T06:56:23.160Z,99813.34
2022-11-24T07:01:28.420Z,99809.87
2022-11-24T07:06:31.569Z,99802.90
2022-11-24T07:11:35.358Z,99810.16
2022-11-24T07:16:39.657Z,99809.48
2022-11-24T07:21:42.633Z,99819.36
2022-11-24T07:26:45.946Z,99839.11
2022-11-24T07:31:49.118Z,99846.92
2022-11-24T07:36:52.372Z,99851.02
2022-11-24T07:41:55.580Z,99843.00
2022-11-24T07:46:58.598Z,99839.52
2022-11-24T07:52:02.008Z,99840.36
2022-11-24T07:57:05.221Z,99842.56
2022-11-24T08:02:12.402Z,99836.65
2022-11-24T08:07:15.413Z,99829.73
2022-11-24T08:12:22.702Z,99831.04
2022-11-24T08:17:25.739Z,99829.56
2022-11-24T08:22:28.847Z,99838.30
2022-11-24T08:27:31.960Z,99851.02
2022-11-24T08:32:35.165Z,99855.80
2022-11-24T08:37:38.277Z,99851.77
2022-11-24T08:42:41.286Z,99855.68
2022-11-24T08:47:44.393Z,99865.81
2022-11-24T08:52:47.605Z,99867.02
2022-11-24T08:57:50.715Z,99861.67
2022-11-24T09:02:57.891Z,99863.06
2022-11-24T09:08:01.128Z,99861.10
2022-11-24T09:13:04.650Z,99849.95
2022-11-24T09:18:07.758Z,99845.20
2022-11-24T09:23:11.476Z,99839.46
2022-11-24T09:28:14.584Z,99849.23
2022-11-24T09:33:17.692Z,99858.77
2022-11-24T09:38:20.813Z,99858.13
2022-11-24T09:43:34.050Z,99868.92
2022-11-24T09:48:41.666Z,99879.32
2022-11-24T09:53:53.682Z,99878.98
2022-11-24T09:59:03.246Z,99877.09
2022-11-24T10:04:16.621Z,99875.23
2022-11-24T10:09:45.833Z,99872.91
2022-11-24T10:15:07.360Z,99882.85
2022-11-24T10:20:27.355Z,99879.27
2022-11-24T10:25:59.152Z,99885.23
2022-11-24T10:31:27.712Z,99869.73
2022-11-24T10:36:51.211Z,99871.88
2022-11-24T10:42:06.013Z,99873.70
2022-11-24T10:47:28.244Z,99872.92
2022-11-24T10:52:40.389Z,99867.80
2022-11-24T10:57:45.226Z,99870.55
2022-11-24T11:02:50.698Z,99876.95
2022-11-24T11:08:20.050Z,99871.34
2022-11-24T11:13:30.874Z,99874.20
2022-11-24T11:18:34.232Z,99875.14
2022-11-24T11:23:38.160Z,99873.45
2022-11-24T11:28:41.273Z,99875.60
2022-11-24T11:34:04.145Z,99880.08
2022-11-24T11:39:35.070Z,99879.67
2022-11-24T11:44:49.008Z,99878.60
2022-11-24T11:49:53.120Z,99875.08
2022-11-24T11:55:22.316Z,99881.07
2022-11-24T12:00:25.425Z,99889.52
2022-11-24T12:05:46.559Z,99891.75
2022-11-24T12:11:10.087Z,99891.77
2022-11-24T12:16:41.823Z,99890.66
2022-11-24T12:22:03.467Z,99882.45
2022-11-24T12:27:23.289Z,99883.70
2022-11-24T12:33:03.957Z,99879.65
2022-11-24T12:38:27.772Z,99888.41
2022-11-24T12:43:35.781Z,99883.81
2022-11-24T12:48:38.677Z,99886.42
2022-11-24T12:53:43.478Z,99882.02
2022-11-24T12:59:06.606Z,99877.91
2022-11-24T13:04:39.205Z,99881.11
2022-11-24T13:10:26.365Z,99883.63
2022-11-24T13:16:20.598Z,99883.66
2022-11-24T13:21:51.870Z,99884.64
2022-11-24T13:27:24.631Z,99882.20
2022-11-24T13:32:33.675Z,99881.02
2022-11-24T13:37:36.788Z,99880.50
2022-11-24T13:42:54.845Z,99878.49
2022-11-24T13:47:58.058Z,99882.38
2022-11-24T13:53:18.060Z,99889.38
2022-11-24T13:58:27.621Z,99892.46
2022-11-24T14:03:55.478Z,99897.16
2022-11-24T14:09:42.651Z,99897.94
2022-11-24T14:14:51.456Z,99901.14
2022-11-24T14:19:56.970Z,99916.36
2022-11-24T14:25:02.412Z,99921.53
2022-11-24T14:30:06.464Z,99929.09
2022-11-24T14:35:43.667Z,99936.64
2022-11-24T14:40:50.256Z,99940.11
2022-11-24T14:45:57.298Z,99939.98
2022-11-24T14:51:14.678Z,99940.83
2022-11-24T14:56:26.411Z,99942.44
2022-11-24T15:01:29.847Z,99950.11
2022-11-24T15:06:33.146Z,99950.23
2022-11-24T15:11:36.356Z,99953.63
2022-11-24T15:16:40.196Z,99957.75
2022-11-24T15:21:43.492Z,99958.45
2022-11-24T15:26:46.905Z,99959.58
2022-11-24T15:31:52.839Z,99963.46
2022-11-24T15:36:56.607Z,99968.54
2022-11-24T15:41:59.820Z,99966.52
2022-11-24T15:47:03.052Z,99962.13
2022-11-24T15:52:07.060Z,99960.54
2022-11-24T15:57:11.066Z,99961.80
2022-11-24T16:02:14.201Z,99960.32
2022-11-24T16:07:17.446Z,99957.05
2022-11-24T16:12:20.622Z,99964.41
2022-11-24T16:17:23.726Z,99967.61
2022-11-24T16:22:26.732Z,99968.46
2022-11-24T16:27:30.045Z,99968.11
2022-11-24T16:32:33.056Z,99971.16
2022-11-24T16:37:36.474Z,99976.80
2022-11-24T16:42:39.696Z,99981.55
2022-11-24T16:47:43.196Z,99980.07
2022-11-24T16:52:46.316Z,99980.48
2022-11-24T16:57:49.423Z,99985.60
2022-11-24T17:02:52.472Z,99984.33
2022-11-24T17:07:55.759Z,99988.27
2022-11-24T17:12:59.068Z,99991.52
2022-11-24T17:18:23.474Z,99996.09
2022-11-24T17:23:26.247Z,100009.95
2022-11-24T17:28:29.950Z,100015.39
2022-11-24T17:33:33.096Z,100020.40
2022-11-24T17:38:37.091Z,100022.81
2022-11-24T17:43:40.234Z,100027.87
2022-11-24T17:48:43.440Z,100031.30
2022-11-24T17:53:49.565Z,100041.17
2022-11-24T17:58:57.955Z,100049.29
2022-11-24T18:04:01.480Z,100050.34
2022-11-24T18:09:04.584Z,100049.15
2022-11-24T18:14:07.790Z,100046.33
2022-11-24T18:19:11.510Z,100045.08
2022-11-24T18:24:17.488Z,100049.77
2022-11-24T18:29:24.396Z,100060.52
2022-11-24T18:34:27.601Z,100059.94
2022-11-24T18:39:30.707Z,100061.09
2022-11-24T18:44:34.406Z,100064.55
2022-11-24T18:49:37.649Z,100072.50
2022-11-24T18:54:40.868Z,100074.59
2022-11-24T18:59:44.070Z,100071.81
2022-11-24T19:04:47.281Z,100077.55
2022-11-24T19:09:50.384Z,100073.09
2022-11-24T19:14:54.725Z,100069.30
2022-11-24T19:19:57.838Z,100059.77
2022-11-24T19:25:00.949Z,100056.84
2022-11-24T19:30:04.526Z,100064.55
2022-11-24T19:35:07.948Z,100072.25
2022-11-24T19:40:11.521Z,100081.08
2022-11-24T19:45:14.619Z,100087.27
2022-11-24T19:50:18.635Z,100092.35
2022-11-24T19:55:21.845Z,100095.77
2022-11-24T20:00:29.107Z,100098.86
2022-11-24T20:05:34.886Z,100100.46
2022-11-24T20:10:42.485Z,100100.68
2022-11-24T20:15:45.646Z,100101.09
2022-11-24T20:20:48.672Z,100106.17
2022-11-24T20:25:51.873Z,100112.83
2022-11-24T20:30:54.974Z,100111.33
2022-11-24T20:36:13.136Z,100115.80
2022-11-24T20:41:17.984Z,100120.34
2022-11-24T20:46:27.238Z,100130.39
2022-11-24T20:51:33.322Z,100127.77
2022-11-24T20:56:39.869Z,100121.88
2022-11-24T21:01:45.585Z,100133.63
2022-11-24T21:06:49.404Z,100138.27
2022-11-24T21:11:52.573Z,100147.61
2022-11-24T21:16:55.652Z,100150.02
2022-11-24T21:21:58.730Z,100149.95
2022-11-24T21:27:01.742Z,100151.75
2022-11-24T21:32:05.483Z,100150.17
2022-11-24T21:37:08.569Z,100152.77
2022-11-24T21:42:11.783Z,100153.98
2022-11-24T21:47:14.888Z,100146.14
2022-11-24T21:52:17.999Z,100154.45
2022-11-24T21:57:23.255Z,100150.23
2022-11-24T22:02:26.345Z,100137.77
2022-11-24T22:07:33.032Z,100139.34
2022-11-24T22:12:36.061Z,100141.86
2022-11-24T22:17:39.123Z,100143.52
2022-11-24T22:22:42.278Z,100150.13
2022-11-24T22:27:45.297Z,100153.03
2022-11-24T22:32:48.396Z,100157.28
2022-11-24T22:37:51.900Z,100167.08
2022-11-24T22:42:54.921Z,100170.54
2022-11-24T22:47:58.098Z,100172.66
2022-11-24T22:53:01.340Z,100184.05
2022-11-24T22:58:04.354Z,100188.91
2022-11-24T23:03:07.386Z,100190.86
2022-11-24T23:08:10.564Z,100188.69
2022-11-24T23:13:13.775Z,100191.65
2022-11-24T23:18:16.785Z,100190.41
2022-11-24T23:23:19.898Z,100186.39
2022-11-24T23:28:23.000Z,100188.16
2022-11-24T23:33:26.107Z,100183.88
2022-11-24T23:38:32.549Z,100179.63
2022-11-24T23:43:35.816Z,100174.84
2022-11-24T23:48:39.810Z,100168.48
2022-11-24T23:53:44.176Z,100168.46
2022-11-24T23:58:48.121Z,100164.91
